Flight Track Log - Related Links

Times and Time Zones

All times are in EDT time to prevent confusion due to time zone crossing. See the EMD21 flight status page for this flight to view local times or setup timezone preferences in your user account.

Time Position Orientation Groundspeed Altitude Reporting Facility
EDT Latitude Longitude Course Direction KTS MPH feet Rate Location/Type
Tue 09:28:36 AM 34.7931 -95.7903 161° South 226 260 3,500  Level Fort Worth Center
Tue 09:29:36 AM 34.7425 -95.7633 156° South 213 245 4,400 900 Climbing Fort Worth Center
Tue 09:30:36 AM 34.6922 -95.7417 160° South 201 231 5,300 750 Climbing Fort Worth Center
Tue 09:31:36 AM 34.6397 -95.7200 161° South 196 226 5,900 650 Climbing Fort Worth Center
Tue 09:32:36 AM 34.5894 -95.6958 158° South 196 226 6,600 600 Climbing Fort Worth Center
Tue 09:33:00 AM 34.5648 -95.6435 161° South  Level Estimated
Tue 09:33:36 AM 34.5389 -95.6689 156° South 191 220 7,100  Level Fort Worth Center
Tue 09:34:36 AM 34.4844 -95.6500 164° South 191 220 7,700 650 Climbing Fort Worth Center
Tue 09:35:36 AM 34.4319 -95.6258 159° South 197 227 8,400 650 Climbing Fort Worth Center
Tue 09:36:36 AM 34.3794 -95.5992 157° South 197 227 9,000 650 Climbing Fort Worth Center
Tue 09:37:36 AM 34.3269 -95.5753 159° South 202 232 9,700 600 Climbing Fort Worth Center
Tue 09:38:36 AM 34.2681 -95.5514 161° South 214 246 10,200 650 Climbing Fort Worth Center
Tue 09:39:36 AM 34.2156 -95.5247 157° South 214 246 11,000 650 Climbing Fort Worth Center
Tue 09:40:36 AM 34.1589 -95.5008 161° South 214 246 11,500 650 Climbing Fort Worth Center
Tue 09:41:36 AM 34.1042 -95.4744 158° South 209 241 12,300 800 Climbing Fort Worth Center
Tue 09:42:36 AM 34.0517 -95.4481 157° South 209 241 13,100 400 Climbing Fort Worth Center
Tue 09:43:36 AM 33.9886 -95.4244 163° South 216 249 13,100  Level Fort Worth Center
Tue 09:44:36 AM 33.9278 -95.3983 160° South 222 255 13,100 -50 Level Fort Worth Center
Tue 09:45:36 AM 33.8644 -95.3672 158° South 241 277 13,000  Descending Fort Worth Center
Tue 09:46:36 AM 33.7994 -95.3389 160° South 248 285 13,100 50 Climbing Fort Worth Center
Tue 09:47:37 AM 33.7342 -95.3106 160° South 253 291 13,100  Level Fort Worth Center
Tue 09:48:36 AM 33.6711 -95.2819 159° South 248 285 13,100  Level Fort Worth Center
Tue 09:49:36 AM 33.6081 -95.2536 159° South 248 285 13,100 -50 Level Fort Worth Center
Tue 09:50:36 AM 33.5428 -95.2253 160° South 248 285 13,000  Descending Fort Worth Center
Tue 09:51:36 AM 33.4839 -95.1969 158° South 248 285 13,100 50 Climbing Fort Worth Center
Tue 09:52:36 AM 33.4144 -95.1686 161° South 248 285 13,100  Level Fort Worth Center
Tue 09:53:36 AM 33.3536 -95.1406 159° South 248 285 13,100 -298 Level Fort Worth Center
Tue 09:54:37 AM 33.2861 -95.1122 161° South 248 285 12,500 -700 Descending Fort Worth Center
Tue 09:55:36 AM 33.2167 -95.0819 160° South 254 292 11,700 -756 Descending Fort Worth Center
Tue 09:56:36 AM 33.1514 -95.0489 157° South 254 292 11,000 -350 Descending Fort Worth Center
Tue 09:57:36 AM 33.0861 -95.0158 157° South 254 292 11,000  Level Fort Worth Center
Tue 09:58:36 AM 33.0231 -94.9903 161° South 249 287 11,000  Level Fort Worth Center
Tue 09:59:36 AM 32.9600 -94.9647 161° South 249 287 11,000 50 Level Fort Worth Center
Tue 10:00:36 AM 32.8989 -94.9367 159° South 244 281 11,100 -400 Climbing Fort Worth Center
Tue 10:01:36 AM 32.8378 -94.9089 159° South 244 281 10,200 -1,400 Descending Fort Worth Center
Tue 10:02:36 AM 32.7767 -94.8808 159° South 238 274 8,300 -2,000 Descending Fort Worth Center
Tue 10:03:36 AM 32.7156 -94.8578 162° South 233 268 6,200 -2,083 Descending Fort Worth Center
Tue 10:04:37 AM 32.6586 -94.8297 157° South 233 268 4,100 -1,700 Descending Fort Worth Center
Tue 10:05:36 AM 32.5997 -94.8044 160° South 233 268 2,800 -706 Descending Fort Worth Center
Tue 10:06:36 AM 32.5511 -94.7811 158° South 214 246 2,700 -250 Descending Fort Worth Center
Tue 10:07:36 AM 32.5028 -94.7606 160° South 197 227 2,300 -350 Descending Fort Worth Center
Tue 10:08:36 AM 32.4586 -94.7397 158° South 185 213 2,000 -350 Descending Fort Worth Center
Tue 10:09:36 AM 32.4119 -94.7114 153° Southeast 172 198 1,600 -400 Descending Fort Worth Center

Login

Don't have an account? Register now (free) for customized features, flight alerts, and more!